Radford, Virginia
Current Conditions -  °F | °C
As of 12:35 AM on Thursday 27 Nov 2014 (Local Time) from KPSK Reporting Station
Haze Haze  
Wind Chill: 36°   Ceiling: 2300
Heat Index: 36°   Visibility: 5mi
Dew Point: 36°   Wind: 3mph
Humidity: 100%   Direction: 170°S
Pressure: 29.99"   Gusts: NA
Location:  37.12°N, 80.59°W
Report Text: KPSK 270535Z AUTO 17003KT 5SM BR OVC023 02/02 A2999 RMK AO2 T00200020
Loading
Personal Weather Stations






























Interactive Weather Map New forecast layout! Learn more

10-Day Weather Forecast

Advertisements
Track Severe Weather on mobile